sensor_id;sensor_type;location;lat;lon;timestamp;P1;durP1;ratioP1;P2;durP2;ratioP2
23046;SDS011;11691;51.462;6.902;2022-07-25T00:00:04;8.88;;;5.00;;
23046;SDS011;11691;51.462;6.902;2022-07-25T00:02:30;6.45;;;5.00;;
23046;SDS011;11691;51.462;6.902;2022-07-25T00:04:56;5.60;;;5.07;;
23046;SDS011;11691;51.462;6.902;2022-07-25T00:07:22;6.25;;;5.13;;
23046;SDS011;11691;51.462;6.902;2022-07-25T00:09:48;9.75;;;5.55;;
23046;SDS011;11691;51.462;6.902;2022-07-25T00:12:13;6.38;;;5.10;;
23046;SDS011;11691;51.462;6.902;2022-07-25T00:14:40;8.13;;;5.55;;
23046;SDS011;11691;51.462;6.902;2022-07-25T00:17:06;9.82;;;5.28;;
23046;SDS011;11691;51.462;6.902;2022-07-25T00:19:32;9.65;;;4.80;;
23046;SDS011;11691;51.462;6.902;2022-07-25T00:21:58;9.50;;;4.93;;
23046;SDS011;11691;51.462;6.902;2022-07-25T00:24:24;7.85;;;5.43;;
23046;SDS011;11691;51.462;6.902;2022-07-25T00:26:50;7.20;;;4.90;;
23046;SDS011;11691;51.462;6.902;2022-07-25T00:29:16;6.38;;;4.78;;
23046;SDS011;11691;51.462;6.902;2022-07-25T00:31:42;8.35;;;5.00;;
23046;SDS011;11691;51.462;6.902;2022-07-25T00:34:08;5.85;;;4.90;;
23046;SDS011;11691;51.462;6.902;2022-07-25T00:36:34;6.88;;;5.10;;
23046;SDS011;11691;51.462;6.902;2022-07-25T00:39:00;5.78;;;5.15;;
23046;SDS011;11691;51.462;6.902;2022-07-25T00:41:26;6.82;;;4.90;;
23046;SDS011;11691;51.462;6.902;2022-07-25T00:43:52;6.93;;;5.28;;
23046;SDS011;11691;51.462;6.902;2022-07-25T00:46:18;6.05;;;5.20;;
23046;SDS011;11691;51.462;6.902;2022-07-25T00:48:46;6.30;;;5.05;;
23046;SDS011;11691;51.462;6.902;2022-07-25T00:51:11;7.97;;;5.00;;
23046;SDS011;11691;51.462;6.902;2022-07-25T00:53:38;7.75;;;4.93;;
23046;SDS011;11691;51.462;6.902;2022-07-25T00:56:04;7.55;;;4.97;;
23046;SDS011;11691;51.462;6.902;2022-07-25T00:58:30;8.02;;;5.20;;
23046;SDS011;11691;51.462;6.902;2022-07-25T01:00:56;6.68;;;5.25;;
23046;SDS011;11691;51.462;6.902;2022-07-25T01:03:23;6.85;;;4.95;;
23046;SDS011;11691;51.462;6.902;2022-07-25T01:05:49;11.02;;;5.50;;
23046;SDS011;11691;51.462;6.902;2022-07-25T01:08:17;6.47;;;5.28;;
23046;SDS011;11691;51.462;6.902;2022-07-25T01:10:44;12.90;;;4.80;;
23046;SDS011;11691;51.462;6.902;2022-07-25T01:13:11;7.45;;;5.30;;
23046;SDS011;11691;51.462;6.902;2022-07-25T01:15:37;8.57;;;5.28;;
23046;SDS011;11691;51.462;6.902;2022-07-25T01:18:03;7.07;;;4.88;;
23046;SDS011;11691;51.462;6.902;2022-07-25T01:20:30;6.00;;;5.32;;
23046;SDS011;11691;51.462;6.902;2022-07-25T01:22:56;6.60;;;5.00;;
23046;SDS011;11691;51.462;6.902;2022-07-25T01:25:23;6.72;;;4.90;;
23046;SDS011;11691;51.462;6.902;2022-07-25T01:27:49;8.57;;;5.60;;
23046;SDS011;11691;51.462;6.902;2022-07-25T01:30:17;7.10;;;5.63;;
23046;SDS011;11691;51.462;6.902;2022-07-25T01:32:43;6.80;;;5.05;;
23046;SDS011;11691;51.462;6.902;2022-07-25T01:35:10;6.15;;;5.10;;
23046;SDS011;11691;51.462;6.902;2022-07-25T01:37:37;9.40;;;5.30;;
23046;SDS011;11691;51.462;6.902;2022-07-25T01:40:03;8.70;;;5.50;;
23046;SDS011;11691;51.462;6.902;2022-07-25T01:42:29;6.80;;;5.82;;
23046;SDS011;11691;51.462;6.902;2022-07-25T01:44:55;7.63;;;5.03;;
23046;SDS011;11691;51.462;6.902;2022-07-25T01:47:21;7.10;;;5.65;;
23046;SDS011;11691;51.462;6.902;2022-07-25T01:49:47;6.22;;;5.10;;
23046;SDS011;11691;51.462;6.902;2022-07-25T01:52:13;6.20;;;5.22;;
23046;SDS011;11691;51.462;6.902;2022-07-25T01:54:39;7.00;;;5.55;;
23046;SDS011;11691;51.462;6.902;2022-07-25T01:57:05;12.45;;;5.68;;
23046;SDS011;11691;51.462;6.902;2022-07-25T01:59:31;7.38;;;5.05;;
23046;SDS011;11691;51.462;6.902;2022-07-25T02:01:57;7.10;;;5.20;;
23046;SDS011;11691;51.462;6.902;2022-07-25T02:04:23;6.75;;;5.10;;
23046;SDS011;11691;51.462;6.902;2022-07-25T02:06:48;7.18;;;5.38;;
23046;SDS011;11691;51.462;6.902;2022-07-25T02:09:16;6.03;;;5.32;;
23046;SDS011;11691;51.462;6.902;2022-07-25T02:11:42;7.82;;;5.25;;
23046;SDS011;11691;51.462;6.902;2022-07-25T02:14:07;9.27;;;5.45;;
23046;SDS011;11691;51.462;6.902;2022-07-25T02:16:33;7.78;;;5.40;;
23046;SDS011;11691;51.462;6.902;2022-07-25T02:18:59;9.25;;;5.63;;
23046;SDS011;11691;51.462;6.902;2022-07-25T02:21:25;10.50;;;5.50;;
23046;SDS011;11691;51.462;6.902;2022-07-25T02:23:51;7.68;;;5.22;;
23046;SDS011;11691;51.462;6.902;2022-07-25T02:26:17;6.30;;;5.00;;
23046;SDS011;11691;51.462;6.902;2022-07-25T02:28:43;6.43;;;5.05;;
23046;SDS011;11691;51.462;6.902;2022-07-25T02:31:09;5.63;;;4.97;;
23046;SDS011;11691;51.462;6.902;2022-07-25T02:33:35;7.15;;;5.43;;
23046;SDS011;11691;51.462;6.902;2022-07-25T02:36:01;5.95;;;5.35;;
23046;SDS011;11691;51.462;6.902;2022-07-25T02:38:27;8.27;;;6.20;;
23046;SDS011;11691;51.462;6.902;2022-07-25T02:40:53;9.55;;;5.43;;
23046;SDS011;11691;51.462;6.902;2022-07-25T02:43:19;7.63;;;5.65;;
23046;SDS011;11691;51.462;6.902;2022-07-25T02:45:45;7.85;;;5.53;;
23046;SDS011;11691;51.462;6.902;2022-07-25T02:48:11;7.78;;;5.10;;
23046;SDS011;11691;51.462;6.902;2022-07-25T02:50:37;7.43;;;4.95;;
23046;SDS011;11691;51.462;6.902;2022-07-25T02:53:03;5.95;;;4.82;;
23046;SDS011;11691;51.462;6.902;2022-07-25T02:55:30;7.97;;;5.10;;
23046;SDS011;11691;51.462;6.902;2022-07-25T02:57:56;6.60;;;5.13;;
23046;SDS011;11691;51.462;6.902;2022-07-25T03:00:22;7.95;;;5.30;;
23046;SDS011;11691;51.462;6.902;2022-07-25T03:02:48;7.35;;;5.30;;
23046;SDS011;11691;51.462;6.902;2022-07-25T03:05:14;9.02;;;5.20;;
23046;SDS011;11691;51.462;6.902;2022-07-25T03:07:41;7.55;;;4.97;;
23046;SDS011;11691;51.462;6.902;2022-07-25T03:10:07;5.93;;;5.00;;
23046;SDS011;11691;51.462;6.902;2022-07-25T03:12:34;8.50;;;5.05;;
23046;SDS011;11691;51.462;6.902;2022-07-25T03:15:00;6.30;;;5.40;;
23046;SDS011;11691;51.462;6.902;2022-07-25T03:17:27;6.00;;;5.40;;
23046;SDS011;11691;51.462;6.902;2022-07-25T03:19:53;5.95;;;5.35;;
23046;SDS011;11691;51.462;6.902;2022-07-25T03:22:20;7.00;;;5.13;;
23046;SDS011;11691;51.462;6.902;2022-07-25T03:24:46;7.07;;;5.25;;
23046;SDS011;11691;51.462;6.902;2022-07-25T03:27:12;10.02;;;5.15;;
23046;SDS011;11691;51.462;6.902;2022-07-25T03:29:38;5.88;;;4.95;;
23046;SDS011;11691;51.462;6.902;2022-07-25T03:32:05;7.35;;;5.35;;
23046;SDS011;11691;51.462;6.902;2022-07-25T03:34:31;8.10;;;5.38;;
23046;SDS011;11691;51.462;6.902;2022-07-25T03:36:56;5.75;;;4.75;;
23046;SDS011;11691;51.462;6.902;2022-07-25T03:39:24;9.57;;;5.35;;
23046;SDS011;11691;51.462;6.902;2022-07-25T03:41:50;5.68;;;4.75;;
23046;SDS011;11691;51.462;6.902;2022-07-25T03:44:17;6.60;;;5.03;;
23046;SDS011;11691;51.462;6.902;2022-07-25T03:46:43;6.40;;;4.85;;
23046;SDS011;11691;51.462;6.902;2022-07-25T03:49:09;10.05;;;5.10;;
23046;SDS011;11691;51.462;6.902;2022-07-25T03:51:35;11.15;;;4.90;;
23046;SDS011;11691;51.462;6.902;2022-07-25T03:54:01;6.03;;;5.25;;
23046;SDS011;11691;51.462;6.902;2022-07-25T03:56:40;6.28;;;5.40;;
23046;SDS011;11691;51.462;6.902;2022-07-25T03:59:11;6.60;;;5.00;;
23046;SDS011;11691;51.462;6.902;2022-07-25T04:01:39;7.50;;;4.97;;
23046;SDS011;11691;51.462;6.902;2022-07-25T04:04:06;5.80;;;4.85;;
23046;SDS011;11691;51.462;6.902;2022-07-25T04:06:32;6.68;;;4.55;;
23046;SDS011;11691;51.462;6.902;2022-07-25T04:08:58;7.53;;;5.38;;
23046;SDS011;11691;51.462;6.902;2022-07-25T04:11:23;5.53;;;4.93;;
23046;SDS011;11691;51.462;6.902;2022-07-25T04:13:50;6.05;;;5.05;;
23046;SDS011;11691;51.462;6.902;2022-07-25T04:16:15;7.82;;;4.60;;
23046;SDS011;11691;51.462;6.902;2022-07-25T04:18:42;6.13;;;4.50;;
23046;SDS011;11691;51.462;6.902;2022-07-25T04:21:08;8.90;;;5.38;;
23046;SDS011;11691;51.462;6.902;2022-07-25T04:23:34;6.03;;;4.97;;
23046;SDS011;11691;51.462;6.902;2022-07-25T04:26:00;6.13;;;4.90;;
23046;SDS011;11691;51.462;6.902;2022-07-25T04:28:26;6.25;;;4.75;;
23046;SDS011;11691;51.462;6.902;2022-07-25T04:30:52;8.05;;;5.22;;
23046;SDS011;11691;51.462;6.902;2022-07-25T04:33:18;6.30;;;4.82;;
23046;SDS011;11691;51.462;6.902;2022-07-25T04:35:44;5.22;;;4.63;;
23046;SDS011;11691;51.462;6.902;2022-07-25T04:38:10;5.43;;;4.80;;
23046;SDS011;11691;51.462;6.902;2022-07-25T04:40:36;8.88;;;5.07;;
23046;SDS011;11691;51.462;6.902;2022-07-25T04:43:03;5.72;;;4.80;;
23046;SDS011;11691;51.462;6.902;2022-07-25T04:45:29;6.53;;;4.78;;
23046;SDS011;11691;51.462;6.902;2022-07-25T04:47:56;8.15;;;5.20;;
23046;SDS011;11691;51.462;6.902;2022-07-25T04:50:22;6.78;;;5.18;;
23046;SDS011;11691;51.462;6.902;2022-07-25T04:52:48;7.95;;;5.18;;
23046;SDS011;11691;51.462;6.902;2022-07-25T04:55:14;6.15;;;4.70;;
23046;SDS011;11691;51.462;6.902;2022-07-25T04:57:40;7.15;;;4.95;;
23046;SDS011;11691;51.462;6.902;2022-07-25T05:00:07;5.55;;;4.75;;
23046;SDS011;11691;51.462;6.902;2022-07-25T05:02:34;7.80;;;4.60;;
23046;SDS011;11691;51.462;6.902;2022-07-25T05:05:00;7.10;;;5.25;;
23046;SDS011;11691;51.462;6.902;2022-07-25T05:07:26;6.57;;;5.15;;
23046;SDS011;11691;51.462;6.902;2022-07-25T05:09:52;6.85;;;5.15;;
23046;SDS011;11691;51.462;6.902;2022-07-25T05:12:18;6.68;;;4.65;;
23046;SDS011;11691;51.462;6.902;2022-07-25T05:14:44;6.43;;;4.97;;
23046;SDS011;11691;51.462;6.902;2022-07-25T05:17:10;6.80;;;4.97;;
23046;SDS011;11691;51.462;6.902;2022-07-25T05:19:37;5.65;;;5.05;;
23046;SDS011;11691;51.462;6.902;2022-07-25T05:22:03;6.28;;;5.10;;
23046;SDS011;11691;51.462;6.902;2022-07-25T05:24:32;6.88;;;5.05;;
23046;SDS011;11691;51.462;6.902;2022-07-25T05:26:58;6.57;;;5.15;;
23046;SDS011;11691;51.462;6.902;2022-07-25T05:29:24;7.05;;;4.72;;
23046;SDS011;11691;51.462;6.902;2022-07-25T05:31:51;8.90;;;5.30;;
23046;SDS011;11691;51.462;6.902;2022-07-25T05:34:17;9.55;;;5.53;;
23046;SDS011;11691;51.462;6.902;2022-07-25T05:36:43;7.15;;;4.70;;
23046;SDS011;11691;51.462;6.902;2022-07-25T05:39:09;6.72;;;5.13;;
23046;SDS011;11691;51.462;6.902;2022-07-25T05:41:35;5.97;;;4.68;;
23046;SDS011;11691;51.462;6.902;2022-07-25T05:44:01;14.50;;;5.20;;
23046;SDS011;11691;51.462;6.902;2022-07-25T05:46:27;8.48;;;4.93;;
23046;SDS011;11691;51.462;6.902;2022-07-25T05:48:53;6.43;;;5.43;;
23046;SDS011;11691;51.462;6.902;2022-07-25T05:51:19;6.00;;;4.78;;
23046;SDS011;11691;51.462;6.902;2022-07-25T05:53:45;6.93;;;4.57;;
23046;SDS011;11691;51.462;6.902;2022-07-25T05:56:10;5.72;;;5.13;;
23046;SDS011;11691;51.462;6.902;2022-07-25T05:58:36;6.28;;;4.97;;
23046;SDS011;11691;51.462;6.902;2022-07-25T06:01:04;6.78;;;5.18;;
23046;SDS011;11691;51.462;6.902;2022-07-25T06:03:38;6.35;;;4.75;;
23046;SDS011;11691;51.462;6.902;2022-07-25T06:06:04;5.10;;;4.60;;
23046;SDS011;11691;51.462;6.902;2022-07-25T06:08:30;6.28;;;5.10;;
23046;SDS011;11691;51.462;6.902;2022-07-25T06:10:59;5.72;;;4.88;;
23046;SDS011;11691;51.462;6.902;2022-07-25T06:13:25;7.47;;;4.97;;
23046;SDS011;11691;51.462;6.902;2022-07-25T06:15:51;5.53;;;4.60;;
23046;SDS011;11691;51.462;6.902;2022-07-25T06:18:17;8.15;;;5.13;;
23046;SDS011;11691;51.462;6.902;2022-07-25T06:20:43;6.75;;;4.63;;
23046;SDS011;11691;51.462;6.902;2022-07-25T06:23:09;7.28;;;4.95;;
23046;SDS011;11691;51.462;6.902;2022-07-25T06:25:34;5.72;;;4.80;;
23046;SDS011;11691;51.462;6.902;2022-07-25T06:28:00;6.75;;;4.55;;
23046;SDS011;11691;51.462;6.902;2022-07-25T06:30:26;7.32;;;5.13;;
23046;SDS011;11691;51.462;6.902;2022-07-25T06:32:52;6.63;;;4.85;;
23046;SDS011;11691;51.462;6.902;2022-07-25T06:35:19;5.28;;;3.90;;
23046;SDS011;11691;51.462;6.902;2022-07-25T06:37:45;7.07;;;4.90;;
23046;SDS011;11691;51.462;6.902;2022-07-25T06:40:11;5.90;;;4.38;;
23046;SDS011;11691;51.462;6.902;2022-07-25T06:42:40;4.93;;;4.43;;
23046;SDS011;11691;51.462;6.902;2022-07-25T06:45:07;10.27;;;4.95;;
23046;SDS011;11691;51.462;6.902;2022-07-25T06:47:34;6.80;;;4.75;;
23046;SDS011;11691;51.462;6.902;2022-07-25T06:50:01;7.20;;;5.07;;
23046;SDS011;11691;51.462;6.902;2022-07-25T06:52:27;6.55;;;4.47;;
23046;SDS011;11691;51.462;6.902;2022-07-25T06:54:52;6.00;;;4.68;;
23046;SDS011;11691;51.462;6.902;2022-07-25T06:57:19;8.52;;;5.00;;
23046;SDS011;11691;51.462;6.902;2022-07-25T06:59:44;6.93;;;4.88;;
23046;SDS011;11691;51.462;6.902;2022-07-25T07:02:11;6.82;;;4.75;;
23046;SDS011;11691;51.462;6.902;2022-07-25T07:04:39;6.55;;;4.82;;
23046;SDS011;11691;51.462;6.902;2022-07-25T07:07:05;6.80;;;4.80;;
23046;SDS011;11691;51.462;6.902;2022-07-25T07:09:31;8.82;;;5.43;;
23046;SDS011;11691;51.462;6.902;2022-07-25T07:11:57;7.13;;;5.05;;
23046;SDS011;11691;51.462;6.902;2022-07-25T07:14:23;5.30;;;4.70;;
23046;SDS011;11691;51.462;6.902;2022-07-25T07:16:49;7.00;;;4.85;;
23046;SDS011;11691;51.462;6.902;2022-07-25T07:19:15;6.40;;;5.13;;
23046;SDS011;11691;51.462;6.902;2022-07-25T07:21:41;6.05;;;4.43;;
23046;SDS011;11691;51.462;6.902;2022-07-25T07:24:07;5.70;;;4.57;;
23046;SDS011;11691;51.462;6.902;2022-07-25T07:26:34;5.57;;;5.03;;
23046;SDS011;11691;51.462;6.902;2022-07-25T07:29:00;7.30;;;4.57;;
23046;SDS011;11691;51.462;6.902;2022-07-25T07:31:27;7.80;;;4.55;;
23046;SDS011;11691;51.462;6.902;2022-07-25T07:33:53;5.57;;;4.63;;
23046;SDS011;11691;51.462;6.902;2022-07-25T07:36:20;6.28;;;4.88;;
23046;SDS011;11691;51.462;6.902;2022-07-25T07:38:46;6.72;;;4.65;;
23046;SDS011;11691;51.462;6.902;2022-07-25T07:41:12;5.10;;;4.60;;
23046;SDS011;11691;51.462;6.902;2022-07-25T07:43:38;10.65;;;5.13;;
23046;SDS011;11691;51.462;6.902;2022-07-25T07:46:04;9.82;;;4.90;;
23046;SDS011;11691;51.462;6.902;2022-07-25T07:48:31;7.45;;;4.85;;
23046;SDS011;11691;51.462;6.902;2022-07-25T07:50:57;7.47;;;5.20;;
23046;SDS011;11691;51.462;6.902;2022-07-25T07:53:24;8.40;;;5.00;;
23046;SDS011;11691;51.462;6.902;2022-07-25T07:56:10;7.80;;;5.00;;
23046;SDS011;11691;51.462;6.902;2022-07-25T07:58:36;9.77;;;5.90;;
23046;SDS011;11691;51.462;6.902;2022-07-25T08:01:01;5.38;;;4.88;;
23046;SDS011;11691;51.462;6.902;2022-07-25T08:03:27;6.88;;;5.15;;
23046;SDS011;11691;51.462;6.902;2022-07-25T08:05:53;6.53;;;5.00;;
23046;SDS011;11691;51.462;6.902;2022-07-25T08:08:19;10.88;;;5.53;;
23046;SDS011;11691;51.462;6.902;2022-07-25T08:10:46;6.22;;;5.35;;
23046;SDS011;11691;51.462;6.902;2022-07-25T08:13:14;7.82;;;5.50;;
23046;SDS011;11691;51.462;6.902;2022-07-25T08:15:41;9.77;;;5.65;;
23046;SDS011;11691;51.462;6.902;2022-07-25T08:18:08;7.85;;;5.15;;
23046;SDS011;11691;51.462;6.902;2022-07-25T08:20:34;6.57;;;5.40;;
23046;SDS011;11691;51.462;6.902;2022-07-25T08:23:00;9.40;;;5.18;;
23046;SDS011;11691;51.462;6.902;2022-07-25T08:25:26;6.57;;;5.30;;
23046;SDS011;11691;51.462;6.902;2022-07-25T08:27:52;10.18;;;5.22;;
23046;SDS011;11691;51.462;6.902;2022-07-25T08:30:17;6.15;;;4.45;;
23046;SDS011;11691;51.462;6.902;2022-07-25T08:32:47;6.57;;;5.15;;
23046;SDS011;11691;51.462;6.902;2022-07-25T08:35:13;7.07;;;5.15;;
23046;SDS011;11691;51.462;6.902;2022-07-25T08:37:39;10.02;;;6.10;;
23046;SDS011;11691;51.462;6.902;2022-07-25T08:40:06;9.57;;;4.93;;
23046;SDS011;11691;51.462;6.902;2022-07-25T08:42:32;9.20;;;5.10;;
23046;SDS011;11691;51.462;6.902;2022-07-25T08:44:59;7.07;;;5.05;;
23046;SDS011;11691;51.462;6.902;2022-07-25T08:47:28;5.38;;;4.60;;
23046;SDS011;11691;51.462;6.902;2022-07-25T08:49:55;6.32;;;4.95;;
23046;SDS011;11691;51.462;6.902;2022-07-25T08:52:21;7.80;;;4.80;;
23046;SDS011;11691;51.462;6.902;2022-07-25T08:54:48;5.40;;;4.55;;
23046;SDS011;11691;51.462;6.902;2022-07-25T08:57:14;6.43;;;4.78;;
23046;SDS011;11691;51.462;6.902;2022-07-25T08:59:40;7.63;;;4.68;;
23046;SDS011;11691;51.462;6.902;2022-07-25T09:02:07;8.32;;;4.88;;
23046;SDS011;11691;51.462;6.902;2022-07-25T09:04:36;6.97;;;5.07;;
23046;SDS011;11691;51.462;6.902;2022-07-25T09:07:02;6.05;;;5.18;;
23046;SDS011;11691;51.462;6.902;2022-07-25T09:09:37;6.18;;;4.63;;
23046;SDS011;11691;51.462;6.902;2022-07-25T09:12:05;9.48;;;4.93;;
23046;SDS011;11691;51.462;6.902;2022-07-25T09:14:41;7.45;;;4.95;;
23046;SDS011;11691;51.462;6.902;2022-07-25T09:17:07;5.85;;;5.00;;
23046;SDS011;11691;51.462;6.902;2022-07-25T09:19:33;6.20;;;4.68;;
23046;SDS011;11691;51.462;6.902;2022-07-25T09:24:28;6.05;;;4.88;;
23046;SDS011;11691;51.462;6.902;2022-07-25T09:26:55;9.18;;;4.72;;
23046;SDS011;11691;51.462;6.902;2022-07-25T09:29:23;7.05;;;5.10;;
23046;SDS011;11691;51.462;6.902;2022-07-25T09:31:54;9.10;;;4.63;;
23046;SDS011;11691;51.462;6.902;2022-07-25T09:34:38;5.47;;;4.47;;
23046;SDS011;11691;51.462;6.902;2022-07-25T09:37:08;9.63;;;5.10;;
23046;SDS011;11691;51.462;6.902;2022-07-25T09:39:37;7.13;;;4.97;;
23046;SDS011;11691;51.462;6.902;2022-07-25T09:42:20;5.30;;;4.65;;
23046;SDS011;11691;51.462;6.902;2022-07-25T09:47:52;6.32;;;4.60;;
23046;SDS011;11691;51.462;6.902;2022-07-25T09:50:19;5.93;;;5.05;;
23046;SDS011;11691;51.462;6.902;2022-07-25T09:52:46;7.68;;;5.10;;
23046;SDS011;11691;51.462;6.902;2022-07-25T09:55:12;6.38;;;5.30;;
23046;SDS011;11691;51.462;6.902;2022-07-25T09:57:39;6.90;;;4.90;;
23046;SDS011;11691;51.462;6.902;2022-07-25T10:00:06;6.50;;;4.57;;
23046;SDS011;11691;51.462;6.902;2022-07-25T10:02:40;7.47;;;4.65;;
23046;SDS011;11691;51.462;6.902;2022-07-25T10:08:09;7.00;;;5.05;;
23046;SDS011;11691;51.462;6.902;2022-07-25T10:10:37;6.15;;;4.78;;
23046;SDS011;11691;51.462;6.902;2022-07-25T10:13:07;6.63;;;5.07;;
23046;SDS011;11691;51.462;6.902;2022-07-25T10:15:46;11.80;;;5.38;;
23046;SDS011;11691;51.462;6.902;2022-07-25T10:18:20;7.45;;;4.80;;
23046;SDS011;11691;51.462;6.902;2022-07-25T10:20:48;8.52;;;4.68;;
23046;SDS011;11691;51.462;6.902;2022-07-25T10:23:16;4.90;;;4.30;;
23046;SDS011;11691;51.462;6.902;2022-07-25T10:26:10;4.85;;;4.25;;
23046;SDS011;11691;51.462;6.902;2022-07-25T10:33:52;5.28;;;3.53;;
23046;SDS011;11691;51.462;6.902;2022-07-25T10:36:20;6.13;;;3.00;;
23046;SDS011;11691;51.462;6.902;2022-07-25T10:38:46;4.72;;;3.95;;
23046;SDS011;11691;51.462;6.902;2022-07-25T10:41:15;5.20;;;4.00;;
23046;SDS011;11691;51.462;6.902;2022-07-25T10:43:43;5.93;;;3.42;;
23046;SDS011;11691;51.462;6.902;2022-07-25T10:46:10;3.92;;;3.28;;
23046;SDS011;11691;51.462;6.902;2022-07-25T10:48:37;5.65;;;3.25;;
23046;SDS011;11691;51.462;6.902;2022-07-25T10:51:07;5.95;;;3.13;;
23046;SDS011;11691;51.462;6.902;2022-07-25T10:53:36;4.50;;;3.22;;
23046;SDS011;11691;51.462;6.902;2022-07-25T10:58:50;6.65;;;3.60;;
23046;SDS011;11691;51.462;6.902;2022-07-25T11:01:26;6.18;;;3.15;;
23046;SDS011;11691;51.462;6.902;2022-07-25T11:03:54;5.60;;;3.28;;
23046;SDS011;11691;51.462;6.902;2022-07-25T11:06:28;4.93;;;3.45;;
23046;SDS011;11691;51.462;6.902;2022-07-25T11:08:57;4.68;;;3.10;;
23046;SDS011;11691;51.462;6.902;2022-07-25T11:14:12;4.65;;;3.00;;
23046;SDS011;11691;51.462;6.902;2022-07-25T11:16:39;6.88;;;2.92;;
23046;SDS011;11691;51.462;6.902;2022-07-25T11:19:16;4.25;;;3.10;;
23046;SDS011;11691;51.462;6.902;2022-07-25T11:21:50;6.07;;;3.50;;
23046;SDS011;11691;51.462;6.902;2022-07-25T11:24:19;4.72;;;2.88;;
23046;SDS011;11691;51.462;6.902;2022-07-25T11:26:49;6.63;;;3.00;;
23046;SDS011;11691;51.462;6.902;2022-07-25T11:29:19;4.60;;;3.60;;
23046;SDS011;11691;51.462;6.902;2022-07-25T11:31:56;5.05;;;2.75;;
23046;SDS011;11691;51.462;6.902;2022-07-25T11:34:28;4.88;;;3.30;;
23046;SDS011;11691;51.462;6.902;2022-07-25T11:36:59;5.82;;;3.25;;
23046;SDS011;11691;51.462;6.902;2022-07-25T11:39:26;7.22;;;3.30;;
23046;SDS011;11691;51.462;6.902;2022-07-25T11:41:58;4.72;;;2.83;;
23046;SDS011;11691;51.462;6.902;2022-07-25T11:47:00;5.68;;;3.00;;
23046;SDS011;11691;51.462;6.902;2022-07-25T11:49:26;4.90;;;2.63;;
23046;SDS011;11691;51.462;6.902;2022-07-25T11:51:52;6.60;;;2.80;;
23046;SDS011;11691;51.462;6.902;2022-07-25T11:54:18;3.53;;;2.53;;
23046;SDS011;11691;51.462;6.902;2022-07-25T11:56:44;7.05;;;2.80;;
23046;SDS011;11691;51.462;6.902;2022-07-25T11:59:11;6.13;;;3.03;;
23046;SDS011;11691;51.462;6.902;2022-07-25T12:01:38;3.03;;;2.28;;
23046;SDS011;11691;51.462;6.902;2022-07-25T12:04:09;8.15;;;2.95;;
23046;SDS011;11691;51.462;6.902;2022-07-25T12:06:45;5.65;;;2.60;;
23046;SDS011;11691;51.462;6.902;2022-07-25T12:09:13;3.25;;;2.67;;
23046;SDS011;11691;51.462;6.902;2022-07-25T12:11:39;5.90;;;2.75;;
23046;SDS011;11691;51.462;6.902;2022-07-25T12:14:05;5.55;;;2.80;;
23046;SDS011;11691;51.462;6.902;2022-07-25T12:16:31;6.68;;;3.15;;
23046;SDS011;11691;51.462;6.902;2022-07-25T12:18:57;4.05;;;2.90;;
23046;SDS011;11691;51.462;6.902;2022-07-25T12:21:23;4.85;;;3.13;;
23046;SDS011;11691;51.462;6.902;2022-07-25T12:23:50;4.80;;;3.05;;
23046;SDS011;11691;51.462;6.902;2022-07-25T12:26:16;5.57;;;2.58;;
23046;SDS011;11691;51.462;6.902;2022-07-25T12:28:43;13.25;;;3.22;;
23046;SDS011;11691;51.462;6.902;2022-07-25T12:31:09;3.60;;;2.78;;
23046;SDS011;11691;51.462;6.902;2022-07-25T12:33:35;4.53;;;2.60;;
23046;SDS011;11691;51.462;6.902;2022-07-25T12:36:02;4.05;;;2.63;;
23046;SDS011;11691;51.462;6.902;2022-07-25T12:38:28;6.53;;;2.53;;
23046;SDS011;11691;51.462;6.902;2022-07-25T12:40:54;6.63;;;3.00;;
23046;SDS011;11691;51.462;6.902;2022-07-25T12:43:20;9.65;;;2.60;;
23046;SDS011;11691;51.462;6.902;2022-07-25T12:45:46;4.88;;;2.70;;
23046;SDS011;11691;51.462;6.902;2022-07-25T12:48:12;6.53;;;2.83;;
23046;SDS011;11691;51.462;6.902;2022-07-25T12:50:41;6.50;;;2.75;;
23046;SDS011;11691;51.462;6.902;2022-07-25T12:53:07;7.82;;;2.50;;
23046;SDS011;11691;51.462;6.902;2022-07-25T12:55:34;7.25;;;2.70;;
23046;SDS011;11691;51.462;6.902;2022-07-25T12:58:00;4.10;;;2.55;;
23046;SDS011;11691;51.462;6.902;2022-07-25T13:00:26;4.18;;;2.75;;
23046;SDS011;11691;51.462;6.902;2022-07-25T13:02:52;3.65;;;2.78;;
23046;SDS011;11691;51.462;6.902;2022-07-25T13:05:22;5.90;;;2.80;;
23046;SDS011;11691;51.462;6.902;2022-07-25T13:07:49;9.10;;;3.30;;
23046;SDS011;11691;51.462;6.902;2022-07-25T13:10:16;8.32;;;3.20;;
23046;SDS011;11691;51.462;6.902;2022-07-25T13:12:42;7.10;;;2.80;;
23046;SDS011;11691;51.462;6.902;2022-07-25T13:15:08;4.82;;;2.72;;
23046;SDS011;11691;51.462;6.902;2022-07-25T13:17:34;9.57;;;2.40;;
23046;SDS011;11691;51.462;6.902;2022-07-25T13:20:01;4.20;;;2.45;;
23046;SDS011;11691;51.462;6.902;2022-07-25T13:22:27;5.53;;;2.40;;
23046;SDS011;11691;51.462;6.902;2022-07-25T13:24:53;7.18;;;2.40;;
23046;SDS011;11691;51.462;6.902;2022-07-25T13:27:20;9.38;;;2.65;;
23046;SDS011;11691;51.462;6.902;2022-07-25T13:29:46;4.35;;;2.38;;
23046;SDS011;11691;51.462;6.902;2022-07-25T13:32:18;8.65;;;2.72;;
23046;SDS011;11691;51.462;6.902;2022-07-25T13:34:44;7.22;;;1.92;;
23046;SDS011;11691;51.462;6.902;2022-07-25T13:37:10;6.57;;;2.45;;
23046;SDS011;11691;51.462;6.902;2022-07-25T13:39:37;6.03;;;2.20;;
23046;SDS011;11691;51.462;6.902;2022-07-25T13:42:03;3.42;;;2.20;;
23046;SDS011;11691;51.462;6.902;2022-07-25T13:44:29;6.22;;;2.20;;
23046;SDS011;11691;51.462;6.902;2022-07-25T13:46:55;7.53;;;2.28;;
23046;SDS011;11691;51.462;6.902;2022-07-25T13:49:22;10.55;;;2.70;;
23046;SDS011;11691;51.462;6.902;2022-07-25T13:51:48;6.57;;;2.38;;
23046;SDS011;11691;51.462;6.902;2022-07-25T13:54:14;3.83;;;1.80;;
23046;SDS011;11691;51.462;6.902;2022-07-25T13:56:41;3.05;;;1.90;;
23046;SDS011;11691;51.462;6.902;2022-07-25T13:59:07;5.72;;;2.15;;
23046;SDS011;11691;51.462;6.902;2022-07-25T14:01:33;5.88;;;2.03;;
23046;SDS011;11691;51.462;6.902;2022-07-25T14:03:59;3.00;;;1.90;;
23046;SDS011;11691;51.462;6.902;2022-07-25T14:06:25;6.75;;;1.85;;
23046;SDS011;11691;51.462;6.902;2022-07-25T14:08:51;4.60;;;1.80;;
23046;SDS011;11691;51.462;6.902;2022-07-25T14:11:17;3.70;;;1.92;;
23046;SDS011;11691;51.462;6.902;2022-07-25T14:13:43;5.00;;;1.80;;
23046;SDS011;11691;51.462;6.902;2022-07-25T14:16:10;3.10;;;1.83;;
23046;SDS011;11691;51.462;6.902;2022-07-25T14:18:40;3.17;;;1.80;;
23046;SDS011;11691;51.462;6.902;2022-07-25T14:21:06;5.60;;;1.85;;
23046;SDS011;11691;51.462;6.902;2022-07-25T14:23:31;5.00;;;1.73;;
23046;SDS011;11691;51.462;6.902;2022-07-25T14:25:57;6.35;;;1.90;;
23046;SDS011;11691;51.462;6.902;2022-07-25T14:28:23;4.53;;;1.90;;
23046;SDS011;11691;51.462;6.902;2022-07-25T14:30:50;7.93;;;1.73;;
23046;SDS011;11691;51.462;6.902;2022-07-25T14:33:16;3.50;;;1.85;;
23046;SDS011;11691;51.462;6.902;2022-07-25T14:35:42;4.10;;;2.08;;
23046;SDS011;11691;51.462;6.902;2022-07-25T14:38:07;3.00;;;2.05;;
23046;SDS011;11691;51.462;6.902;2022-07-25T14:40:34;4.68;;;2.00;;
23046;SDS011;11691;51.462;6.902;2022-07-25T14:43:01;5.13;;;2.42;;
23046;SDS011;11691;51.462;6.902;2022-07-25T14:45:27;4.18;;;1.90;;
23046;SDS011;11691;51.462;6.902;2022-07-25T14:47:53;3.45;;;2.22;;
23046;SDS011;11691;51.462;6.902;2022-07-25T14:50:18;5.75;;;2.20;;
23046;SDS011;11691;51.462;6.902;2022-07-25T14:52:44;9.77;;;2.58;;
23046;SDS011;11691;51.462;6.902;2022-07-25T14:55:10;5.18;;;2.80;;
23046;SDS011;11691;51.462;6.902;2022-07-25T14:57:36;4.85;;;2.05;;
23046;SDS011;11691;51.462;6.902;2022-07-25T15:00:03;5.70;;;2.40;;
23046;SDS011;11691;51.462;6.902;2022-07-25T15:02:30;10.20;;;2.63;;
23046;SDS011;11691;51.462;6.902;2022-07-25T15:04:56;5.82;;;2.80;;
23046;SDS011;11691;51.462;6.902;2022-07-25T15:07:21;4.93;;;2.35;;